Terminal Aerodrome Forecast
Issued by NWS North Platte, NE

Home | Current Version | Previous Version | Graphics & Text | Print | Product List | Glossary On
Versions: 1 2 3 4 5 6 7 8 9 10 11 12
848
FTUS43 KLBF 071131
TAFVTN
TAF
KVTN 071131Z 0712/0812 29013G21KT P6SM OVC120
     FM071500 30027G35KT P6SM SCT080
     FM071800 30034G43KT P6SM SCT050 BKN070
     FM080200 31023G30KT P6SM SCT050=

USA.gov is the U.S. government's official web portal to all federal, state and local government web resources and services.